0AR2 weather

Mission Field-Marotti Memorial Airport
Crawfordsville, Arkansas, United States

Public forecast

Using degrees Fahrenheit for public forecast. Weather courtesy of forecast.io.

Closest aviation weather report (METAR) to Mission Field-Marotti Memorial Airport

Closest report is West Memphis Municipal Airport, 9.7 nm (18.0 km) SE. Retrieved 2019/10/20 22:53 UTC (11 minutes ago):

KAWM 202253Z AUTO 16009KT 10SM SCT050 24/17 A2979 RMK AO2 SLP085 T02440172

Closest aviation forecast (TAF) to Mission Field-Marotti Memorial Airport

Closest forecast is Memphis International Airport, 22.7 nm (42.1 km) SE. Retrieved 2019/10/20 18:39 UTC (4 hours ago):

TAF KMEM 201735Z 2018/2124 17006KT P6SM BKN050 FM210900 17008KT P6SM VCSH OVC050 WS020/22045KT FM211200 19011G20KT 4SM TSRA BKN025CB OVC050 TEMPO 2113/2116 1SM TSRA FM211900 24014G22KT P6SM VCSH SCT007 OVC015 FM212200 29012G20KT P6SM OVC040